sensor_id;sensor_type;location;lat;lon;timestamp;pressure;altitude;pressure_sealevel;temperature;humidity
21824;BME280;11074;48.596;9.238;2023-02-21T00:01:57;98783.50;;;7.51;71.08
21824;BME280;11074;48.596;9.238;2023-02-21T00:04:42;98781.75;;;7.39;70.33
21824;BME280;11074;48.596;9.238;2023-02-21T00:07:28;98789.09;;;7.43;71.10
21824;BME280;11074;48.596;9.238;2023-02-21T00:10:14;98789.75;;;7.39;70.91
21824;BME280;11074;48.596;9.238;2023-02-21T00:12:59;98779.66;;;7.47;70.23
21824;BME280;11074;48.596;9.238;2023-02-21T00:15:43;98781.94;;;7.44;70.61
21824;BME280;11074;48.596;9.238;2023-02-21T00:18:27;98785.50;;;7.31;69.35
21824;BME280;11074;48.596;9.238;2023-02-21T00:21:16;98775.47;;;7.33;70.13
21824;BME280;11074;48.596;9.238;2023-02-21T00:24:00;98776.06;;;7.35;70.80
21824;BME280;11074;48.596;9.238;2023-02-21T00:26:44;98770.09;;;7.40;70.49
21824;BME280;11074;48.596;9.238;2023-02-21T00:29:28;98768.84;;;7.42;70.43
21824;BME280;11074;48.596;9.238;2023-02-21T00:32:12;98772.94;;;7.45;70.32
21824;BME280;11074;48.596;9.238;2023-02-21T00:34:56;98773.63;;;7.33;70.08
21824;BME280;11074;48.596;9.238;2023-02-21T00:37:40;98769.00;;;7.22;70.94
21824;BME280;11074;48.596;9.238;2023-02-21T00:40:24;98772.47;;;7.23;70.41
21824;BME280;11074;48.596;9.238;2023-02-21T00:43:08;98770.41;;;7.25;70.96
21824;BME280;11074;48.596;9.238;2023-02-21T00:45:52;98768.41;;;7.20;70.56
21824;BME280;11074;48.596;9.238;2023-02-21T00:48:36;98764.94;;;7.13;70.17
21824;BME280;11074;48.596;9.238;2023-02-21T00:51:20;98764.25;;;7.00;68.98
21824;BME280;11074;48.596;9.238;2023-02-21T00:54:04;98762.03;;;6.97;70.47
21824;BME280;11074;48.596;9.238;2023-02-21T00:56:48;98762.13;;;7.08;71.00
21824;BME280;11074;48.596;9.238;2023-02-21T00:59:32;98764.44;;;6.98;70.77
21824;BME280;11074;48.596;9.238;2023-02-21T01:02:16;98763.09;;;6.89;70.67
21824;BME280;11074;48.596;9.238;2023-02-21T01:05:00;98759.88;;;6.74;70.77
21824;BME280;11074;48.596;9.238;2023-02-21T01:07:44;98759.69;;;6.76;72.07
21824;BME280;11074;48.596;9.238;2023-02-21T01:10:28;98759.94;;;6.67;73.02
21824;BME280;11074;48.596;9.238;2023-02-21T01:13:12;98754.63;;;6.67;71.76
21824;BME280;11074;48.596;9.238;2023-02-21T01:15:56;98753.03;;;6.60;71.36
21824;BME280;11074;48.596;9.238;2023-02-21T01:18:40;98750.50;;;6.71;72.41
21824;BME280;11074;48.596;9.238;2023-02-21T01:21:24;98756.84;;;6.70;72.06
21824;BME280;11074;48.596;9.238;2023-02-21T01:24:13;98754.22;;;6.64;73.19
21824;BME280;11074;48.596;9.238;2023-02-21T01:26:59;98750.91;;;6.68;71.19
21824;BME280;11074;48.596;9.238;2023-02-21T01:29:43;98751.97;;;6.67;71.39
21824;BME280;11074;48.596;9.238;2023-02-21T01:32:27;98758.94;;;6.62;73.31
21824;BME280;11074;48.596;9.238;2023-02-21T01:35:11;98754.81;;;6.66;72.29
21824;BME280;11074;48.596;9.238;2023-02-21T01:37:56;98755.63;;;6.73;71.96
21824;BME280;11074;48.596;9.238;2023-02-21T01:40:40;98753.97;;;6.72;71.70
21824;BME280;11074;48.596;9.238;2023-02-21T01:43:27;98752.75;;;6.68;72.05
21824;BME280;11074;48.596;9.238;2023-02-21T01:46:17;98752.97;;;6.66;71.62
21824;BME280;11074;48.596;9.238;2023-02-21T01:49:08;98739.94;;;6.65;71.35
21824;BME280;11074;48.596;9.238;2023-02-21T01:51:56;98750.38;;;6.60;72.29
21824;BME280;11074;48.596;9.238;2023-02-21T01:54:48;98746.75;;;6.48;72.86
21824;BME280;11074;48.596;9.238;2023-02-21T01:57:34;98744.75;;;6.37;72.77
21824;BME280;11074;48.596;9.238;2023-02-21T02:00:20;98735.75;;;6.38;72.74
21824;BME280;11074;48.596;9.238;2023-02-21T02:03:08;98741.66;;;6.46;72.63
21824;BME280;11074;48.596;9.238;2023-02-21T02:06:08;98734.69;;;6.52;71.99
21824;BME280;11074;48.596;9.238;2023-02-21T02:08:53;98735.22;;;6.60;71.50
21824;BME280;11074;48.596;9.238;2023-02-21T02:18:41;98729.00;;;6.42;72.59
21824;BME280;11074;48.596;9.238;2023-02-21T02:23:59;98732.31;;;6.31;71.80
21824;BME280;11074;48.596;9.238;2023-02-21T02:27:24;98726.22;;;6.24;72.00
21824;BME280;11074;48.596;9.238;2023-02-21T02:30:29;98726.44;;;6.16;73.34
21824;BME280;11074;48.596;9.238;2023-02-21T02:33:56;98729.28;;;6.21;73.60
21824;BME280;11074;48.596;9.238;2023-02-21T02:36:41;98726.09;;;6.05;73.22
21824;BME280;11074;48.596;9.238;2023-02-21T02:39:21;98714.25;;;6.01;72.30
21824;BME280;11074;48.596;9.238;2023-02-21T02:42:18;98712.88;;;5.86;73.08
21824;BME280;11074;48.596;9.238;2023-02-21T02:45:14;98711.03;;;5.86;73.66
21824;BME280;11074;48.596;9.238;2023-02-21T02:47:45;98715.50;;;5.92;73.07
21824;BME280;11074;48.596;9.238;2023-02-21T02:50:15;98710.19;;;5.92;74.04
21824;BME280;11074;48.596;9.238;2023-02-21T02:52:53;98708.97;;;5.95;74.38
21824;BME280;11074;48.596;9.238;2023-02-21T02:55:33;98715.91;;;5.89;72.84
21824;BME280;11074;48.596;9.238;2023-02-21T02:58:01;98707.38;;;5.87;72.58
21824;BME280;11074;48.596;9.238;2023-02-21T03:00:30;98706.53;;;5.87;72.96
21824;BME280;11074;48.596;9.238;2023-02-21T03:09:17;98698.53;;;6.06;73.50
21824;BME280;11074;48.596;9.238;2023-02-21T03:12:02;98701.97;;;6.14;72.99
21824;BME280;11074;48.596;9.238;2023-02-21T03:14:38;98707.56;;;5.86;71.02
21824;BME280;11074;48.596;9.238;2023-02-21T03:17:12;98706.50;;;6.06;72.73
21824;BME280;11074;48.596;9.238;2023-02-21T03:19:45;98711.56;;;6.15;72.05
21824;BME280;11074;48.596;9.238;2023-02-21T03:22:20;98705.44;;;6.07;70.39
21824;BME280;11074;48.596;9.238;2023-02-21T03:24:48;98708.50;;;6.04;71.91
21824;BME280;11074;48.596;9.238;2023-02-21T03:27:16;98702.19;;;6.05;71.96
21824;BME280;11074;48.596;9.238;2023-02-21T03:29:44;98702.44;;;5.91;70.41
21824;BME280;11074;48.596;9.238;2023-02-21T03:32:17;98706.72;;;5.98;72.06
21824;BME280;11074;48.596;9.238;2023-02-21T03:34:45;98703.28;;;5.85;71.46
21824;BME280;11074;48.596;9.238;2023-02-21T03:37:40;98703.28;;;5.72;70.99
21824;BME280;11074;48.596;9.238;2023-02-21T03:40:14;98699.19;;;5.82;69.98
21824;BME280;11074;48.596;9.238;2023-02-21T03:42:40;98698.38;;;5.75;71.31
21824;BME280;11074;48.596;9.238;2023-02-21T03:45:07;98698.81;;;5.59;72.28
21824;BME280;11074;48.596;9.238;2023-02-21T03:47:32;98706.97;;;5.71;71.26
21824;BME280;11074;48.596;9.238;2023-02-21T03:49:58;98699.41;;;5.74;71.75
21824;BME280;11074;48.596;9.238;2023-02-21T03:52:24;98691.22;;;5.76;72.37
21824;BME280;11074;48.596;9.238;2023-02-21T03:54:49;98693.94;;;5.56;71.93
21824;BME280;11074;48.596;9.238;2023-02-21T03:57:15;98698.00;;;5.65;73.40
21824;BME280;11074;48.596;9.238;2023-02-21T03:59:41;98693.94;;;5.49;73.59
21824;BME280;11074;48.596;9.238;2023-02-21T04:02:06;98698.44;;;5.56;74.15
21824;BME280;11074;48.596;9.238;2023-02-21T04:04:33;98703.94;;;5.61;73.74
21824;BME280;11074;48.596;9.238;2023-02-21T04:06:58;98700.22;;;5.68;74.22
21824;BME280;11074;48.596;9.238;2023-02-21T04:09:24;98704.34;;;5.64;72.76
21824;BME280;11074;48.596;9.238;2023-02-21T04:11:51;98694.34;;;5.53;72.19
21824;BME280;11074;48.596;9.238;2023-02-21T04:14:17;98699.63;;;5.66;71.37
21824;BME280;11074;48.596;9.238;2023-02-21T04:16:43;98693.09;;;5.62;71.70
21824;BME280;11074;48.596;9.238;2023-02-21T04:19:08;98706.34;;;5.62;73.32
21824;BME280;11074;48.596;9.238;2023-02-21T04:21:34;98700.69;;;5.59;72.59
21824;BME280;11074;48.596;9.238;2023-02-21T04:23:59;98698.44;;;5.56;71.57
21824;BME280;11074;48.596;9.238;2023-02-21T04:26:25;98702.88;;;5.62;71.66
21824;BME280;11074;48.596;9.238;2023-02-21T04:28:53;98699.03;;;5.51;70.22
21824;BME280;11074;48.596;9.238;2023-02-21T04:31:19;98702.75;;;5.37;71.93
21824;BME280;11074;48.596;9.238;2023-02-21T04:33:45;98701.91;;;5.30;72.70
21824;BME280;11074;48.596;9.238;2023-02-21T04:36:10;98692.94;;;5.11;72.27
21824;BME280;11074;48.596;9.238;2023-02-21T04:38:36;98696.44;;;5.18;73.68
21824;BME280;11074;48.596;9.238;2023-02-21T04:41:03;98700.50;;;5.34;73.97
21824;BME280;11074;48.596;9.238;2023-02-21T04:43:29;98698.03;;;5.32;73.69
21824;BME280;11074;48.596;9.238;2023-02-21T04:45:55;98703.34;;;5.19;72.04
21824;BME280;11074;48.596;9.238;2023-02-21T04:48:21;98708.22;;;5.22;73.96
21824;BME280;11074;48.596;9.238;2023-02-21T04:50:47;98701.72;;;5.25;73.63
21824;BME280;11074;48.596;9.238;2023-02-21T04:53:13;98690.50;;;5.29;72.01
21824;BME280;11074;48.596;9.238;2023-02-21T04:55:39;98699.69;;;5.27;70.53
21824;BME280;11074;48.596;9.238;2023-02-21T04:58:04;98693.38;;;5.08;72.23
21824;BME280;11074;48.596;9.238;2023-02-21T05:00:30;98689.91;;;5.08;71.04
21824;BME280;11074;48.596;9.238;2023-02-21T05:02:56;98693.19;;;5.16;72.40
21824;BME280;11074;48.596;9.238;2023-02-21T05:05:22;98696.22;;;5.20;71.26
21824;BME280;11074;48.596;9.238;2023-02-21T05:07:47;98688.88;;;5.22;71.58
21824;BME280;11074;48.596;9.238;2023-02-21T05:10:15;98686.22;;;5.28;72.46
21824;BME280;11074;48.596;9.238;2023-02-21T05:12:42;98688.88;;;5.15;72.27
21824;BME280;11074;48.596;9.238;2023-02-21T05:15:11;98690.53;;;5.16;73.99
21824;BME280;11074;48.596;9.238;2023-02-21T05:17:37;98687.88;;;4.97;73.17
21824;BME280;11074;48.596;9.238;2023-02-21T05:20:04;98687.25;;;5.08;74.22
21824;BME280;11074;48.596;9.238;2023-02-21T05:22:40;98686.63;;;4.99;74.06
21824;BME280;11074;48.596;9.238;2023-02-21T05:25:19;98692.16;;;5.11;73.83
21824;BME280;11074;48.596;9.238;2023-02-21T05:27:45;98685.63;;;5.13;72.43
21824;BME280;11074;48.596;9.238;2023-02-21T05:30:15;98696.81;;;5.09;74.05
21824;BME280;11074;48.596;9.238;2023-02-21T05:32:41;98689.50;;;5.11;73.22
21824;BME280;11074;48.596;9.238;2023-02-21T05:35:09;98691.91;;;5.06;72.33
21824;BME280;11074;48.596;9.238;2023-02-21T05:37:35;98687.88;;;5.10;74.03
21824;BME280;11074;48.596;9.238;2023-02-21T05:40:01;98697.84;;;4.95;72.51
21824;BME280;11074;48.596;9.238;2023-02-21T05:42:26;98694.56;;;4.93;74.09
21824;BME280;11074;48.596;9.238;2023-02-21T05:44:52;98701.09;;;4.97;73.47
21824;BME280;11074;48.596;9.238;2023-02-21T05:47:18;98698.25;;;4.92;72.90
21824;BME280;11074;48.596;9.238;2023-02-21T05:49:44;98706.22;;;5.05;74.06
21824;BME280;11074;48.596;9.238;2023-02-21T05:52:15;98704.75;;;4.96;72.71
21824;BME280;11074;48.596;9.238;2023-02-21T05:54:42;98703.16;;;4.95;72.97
21824;BME280;11074;48.596;9.238;2023-02-21T05:57:08;98698.25;;;4.98;71.92
21824;BME280;11074;48.596;9.238;2023-02-21T05:59:34;98699.88;;;4.99;73.13
21824;BME280;11074;48.596;9.238;2023-02-21T06:01:59;98704.38;;;4.99;72.21
21824;BME280;11074;48.596;9.238;2023-02-21T06:04:25;98697.63;;;4.83;72.82
21824;BME280;11074;48.596;9.238;2023-02-21T06:06:51;98701.91;;;4.84;74.32
21824;BME280;11074;48.596;9.238;2023-02-21T06:09:18;98698.66;;;4.88;74.58
21824;BME280;11074;48.596;9.238;2023-02-21T06:11:43;98698.81;;;4.74;74.68
21824;BME280;11074;48.596;9.238;2023-02-21T06:14:18;98699.44;;;4.63;73.95
21824;BME280;11074;48.596;9.238;2023-02-21T06:16:44;98698.84;;;4.80;75.58
21824;BME280;11074;48.596;9.238;2023-02-21T06:19:12;98701.09;;;4.83;73.85
21824;BME280;11074;48.596;9.238;2023-02-21T06:21:39;98694.56;;;4.93;74.49
21824;BME280;11074;48.596;9.238;2023-02-21T06:24:07;98692.75;;;4.86;74.17
21824;BME280;11074;48.596;9.238;2023-02-21T06:26:33;98698.84;;;4.80;72.97
21824;BME280;11074;48.596;9.238;2023-02-21T06:28:59;98706.41;;;4.83;73.11
21824;BME280;11074;48.596;9.238;2023-02-21T06:31:24;98704.75;;;4.82;72.93
21824;BME280;11074;48.596;9.238;2023-02-21T06:33:50;98698.66;;;4.75;72.71
21824;BME280;11074;48.596;9.238;2023-02-21T06:36:21;98700.69;;;4.80;75.09
21824;BME280;11074;48.596;9.238;2023-02-21T06:38:51;98700.88;;;4.65;74.54
21824;BME280;11074;48.596;9.238;2023-02-21T06:41:20;98709.03;;;4.77;75.20
21824;BME280;11074;48.596;9.238;2023-02-21T06:43:50;98704.94;;;4.68;75.00
21824;BME280;11074;48.596;9.238;2023-02-21T06:46:18;98702.69;;;4.71;75.77
21824;BME280;11074;48.596;9.238;2023-02-21T06:48:43;98693.31;;;4.69;76.18
21824;BME280;11074;48.596;9.238;2023-02-21T06:51:09;98701.47;;;4.67;75.60
21824;BME280;11074;48.596;9.238;2023-02-21T06:53:36;98701.06;;;4.64;75.29
21824;BME280;11074;48.596;9.238;2023-02-21T06:56:04;98700.06;;;4.65;75.67
21824;BME280;11074;48.596;9.238;2023-02-21T06:58:29;98699.03;;;4.59;76.44
21824;BME280;11074;48.596;9.238;2023-02-21T07:00:55;98702.06;;;4.56;76.39
21824;BME280;11074;48.596;9.238;2023-02-21T07:03:21;98689.44;;;4.58;76.12
21824;BME280;11074;48.596;9.238;2023-02-21T07:05:46;98691.50;;;4.63;76.56
21824;BME280;11074;48.596;9.238;2023-02-21T07:08:12;98692.25;;;4.50;76.17
21824;BME280;11074;48.596;9.238;2023-02-21T07:10:38;98695.94;;;4.56;76.41
21824;BME280;11074;48.596;9.238;2023-02-21T07:13:03;98699.41;;;4.50;76.58
21824;BME280;11074;48.596;9.238;2023-02-21T07:15:29;98697.19;;;4.60;76.25
21824;BME280;11074;48.596;9.238;2023-02-21T07:17:55;98699.16;;;4.45;76.18
21824;BME280;11074;48.596;9.238;2023-02-21T07:20:21;98700.34;;;4.29;77.13
21824;BME280;11074;48.596;9.238;2023-02-21T07:22:46;98698.16;;;4.46;77.45
21824;BME280;11074;48.596;9.238;2023-02-21T07:25:16;98698.13;;;4.33;77.29
21824;BME280;11074;48.596;9.238;2023-02-21T07:27:42;98697.97;;;4.47;77.37
21824;BME280;11074;48.596;9.238;2023-02-21T07:30:10;98697.41;;;4.65;76.79
21824;BME280;11074;48.596;9.238;2023-02-21T07:32:36;98691.09;;;4.72;76.49
21824;BME280;11074;48.596;9.238;2023-02-21T07:35:03;98696.19;;;4.74;77.10
21824;BME280;11074;48.596;9.238;2023-02-21T07:37:29;98702.72;;;4.78;75.77
21824;BME280;11074;48.596;9.238;2023-02-21T07:39:54;98706.19;;;4.92;75.57
21824;BME280;11074;48.596;9.238;2023-02-21T07:42:20;98693.59;;;5.00;75.94
21824;BME280;11074;48.596;9.238;2023-02-21T07:44:46;98703.34;;;5.06;75.79
21824;BME280;11074;48.596;9.238;2023-02-21T07:47:12;98696.22;;;5.07;75.27
21824;BME280;11074;48.596;9.238;2023-02-21T07:49:39;98693.16;;;5.03;74.61
21824;BME280;11074;48.596;9.238;2023-02-21T07:52:06;98692.94;;;5.11;74.99
21824;BME280;11074;48.596;9.238;2023-02-21T07:54:32;98696.63;;;5.17;74.88
21824;BME280;11074;48.596;9.238;2023-02-21T07:56:58;98696.63;;;5.23;74.62
21824;BME280;11074;48.596;9.238;2023-02-21T07:59:24;98699.69;;;5.27;74.92
21824;BME280;11074;48.596;9.238;2023-02-21T08:01:49;98697.44;;;5.30;74.93
21824;BME280;11074;48.596;9.238;2023-02-21T08:04:15;98695.41;;;5.26;74.94
21824;BME280;11074;48.596;9.238;2023-02-21T08:06:47;98691.72;;;5.33;75.18
21824;BME280;11074;48.596;9.238;2023-02-21T08:09:13;98688.06;;;5.34;73.76
21824;BME280;11074;48.596;9.238;2023-02-21T08:11:39;98683.75;;;5.46;74.52
21824;BME280;11074;48.596;9.238;2023-02-21T08:14:06;98686.41;;;5.46;74.51
21824;BME280;11074;48.596;9.238;2023-02-21T08:16:32;98687.59;;;5.57;73.68
21824;BME280;11074;48.596;9.238;2023-02-21T08:18:58;98679.03;;;5.62;74.80
21824;BME280;11074;48.596;9.238;2023-02-21T08:21:24;98677.19;;;5.69;73.87
21824;BME280;11074;48.596;9.238;2023-02-21T08:23:53;98680.44;;;5.77;73.75
21824;BME280;11074;48.596;9.238;2023-02-21T08:26:20;98680.22;;;5.85;73.62
21824;BME280;11074;48.596;9.238;2023-02-21T08:28:46;98682.25;;;5.90;74.00
21824;BME280;11074;48.596;9.238;2023-02-21T08:31:12;98687.31;;;5.98;74.04
21824;BME280;11074;48.596;9.238;2023-02-21T08:33:38;98682.03;;;5.98;72.51
21824;BME280;11074;48.596;9.238;2023-02-21T08:36:04;98686.88;;;6.07;73.47
21824;BME280;11074;48.596;9.238;2023-02-21T08:38:30;98692.34;;;6.13;73.13
21824;BME280;11074;48.596;9.238;2023-02-21T08:40:55;98688.88;;;6.19;72.81
21824;BME280;11074;48.596;9.238;2023-02-21T08:43:24;98684.97;;;6.28;72.50
21824;BME280;11074;48.596;9.238;2023-02-21T08:45:50;98691.63;;;6.37;72.12
21824;BME280;11074;48.596;9.238;2023-02-21T08:48:16;98688.16;;;6.43;72.10
21824;BME280;11074;48.596;9.238;2023-02-21T08:50:41;98693.63;;;6.48;72.04
21824;BME280;11074;48.596;9.238;2023-02-21T08:53:10;98692.19;;;6.52;70.86
21824;BME280;11074;48.596;9.238;2023-02-21T08:55:36;98695.81;;;6.57;70.95
21824;BME280;11074;48.596;9.238;2023-02-21T08:58:02;98687.00;;;6.63;70.57
21824;BME280;11074;48.596;9.238;2023-02-21T09:00:27;98687.97;;;6.69;70.95
21824;BME280;11074;48.596;9.238;2023-02-21T09:02:54;98688.53;;;6.78;70.33
21824;BME280;11074;48.596;9.238;2023-02-21T09:05:25;98693.00;;;6.84;70.67
21824;BME280;11074;48.596;9.238;2023-02-21T09:07:53;98684.56;;;6.93;70.67
21824;BME280;11074;48.596;9.238;2023-02-21T09:10:29;98679.56;;;7.03;69.93
21824;BME280;11074;48.596;9.238;2023-02-21T09:12:55;98680.69;;;7.14;69.95
21824;BME280;11074;48.596;9.238;2023-02-21T09:15:21;98677.63;;;7.17;69.86
21824;BME280;11074;48.596;9.238;2023-02-21T09:17:46;98677.56;;;7.23;69.39
21824;BME280;11074;48.596;9.238;2023-02-21T09:20:19;98677.72;;;7.28;69.73
21824;BME280;11074;48.596;9.238;2023-02-21T09:22:45;98662.31;;;7.37;69.61
21824;BME280;11074;48.596;9.238;2023-02-21T09:25:14;98662.38;;;7.49;69.63
21824;BME280;11074;48.596;9.238;2023-02-21T09:27:40;98663.94;;;7.56;69.08
21824;BME280;11074;48.596;9.238;2023-02-21T09:30:19;98657.91;;;7.67;69.02
21824;BME280;11074;48.596;9.238;2023-02-21T09:32:47;98654.13;;;7.75;68.83
21824;BME280;11074;48.596;9.238;2023-02-21T09:35:13;98644.25;;;7.82;69.03
21824;BME280;11074;48.596;9.238;2023-02-21T09:37:41;98649.97;;;7.97;68.89
21824;BME280;11074;48.596;9.238;2023-02-21T09:40:53;98641.84;;;8.10;68.43
21824;BME280;11074;48.596;9.238;2023-02-21T09:43:38;98646.41;;;8.21;68.39
21824;BME280;11074;48.596;9.238;2023-02-21T09:46:21;98640.78;;;8.29;68.44
21824;BME280;11074;48.596;9.238;2023-02-21T09:48:50;98646.31;;;8.46;67.98
21824;BME280;11074;48.596;9.238;2023-02-21T09:51:16;98640.88;;;8.52;67.74
21824;BME280;11074;48.596;9.238;2023-02-21T09:53:46;98635.81;;;8.63;67.46
21824;BME280;11074;48.596;9.238;2023-02-21T09:56:38;98633.63;;;8.71;66.91
21824;BME280;11074;48.596;9.238;2023-02-21T09:59:11;98636.41;;;8.76;66.67
21824;BME280;11074;48.596;9.238;2023-02-21T10:05:15;98630.88;;;8.89;66.93
21824;BME280;11074;48.596;9.238;2023-02-21T10:10:36;98624.38;;;8.97;66.02
21824;BME280;11074;48.596;9.238;2023-02-21T10:16:01;98621.28;;;9.11;66.36
21824;BME280;11074;48.596;9.238;2023-02-21T10:18:41;98626.63;;;9.23;65.95
21824;BME280;11074;48.596;9.238;2023-02-21T10:21:44;98621.63;;;9.38;65.76
21824;BME280;11074;48.596;9.238;2023-02-21T10:24:24;98615.03;;;9.52;64.91
21824;BME280;11074;48.596;9.238;2023-02-21T10:27:05;98613.38;;;9.63;64.02
21824;BME280;11074;48.596;9.238;2023-02-21T10:29:46;98619.75;;;9.73;64.45
21824;BME280;11074;48.596;9.238;2023-02-21T10:32:13;98614.03;;;9.82;63.55
21824;BME280;11074;48.596;9.238;2023-02-21T10:34:40;98614.03;;;9.82;63.33
21824;BME280;11074;48.596;9.238;2023-02-21T10:37:29;98606.94;;;9.87;63.49
21824;BME280;11074;48.596;9.238;2023-02-21T10:42:51;98612.59;;;10.14;62.36
21824;BME280;11074;48.596;9.238;2023-02-21T10:45:23;98607.91;;;10.21;62.60
21824;BME280;11074;48.596;9.238;2023-02-21T10:48:02;98605.41;;;10.31;62.41
21824;BME280;11074;48.596;9.238;2023-02-21T10:51:04;98600.97;;;10.37;61.52
21824;BME280;11074;48.596;9.238;2023-02-21T10:53:37;98595.72;;;10.42;62.52
21824;BME280;11074;48.596;9.238;2023-02-21T10:58:56;98589.34;;;10.59;61.17
21824;BME280;11074;48.596;9.238;2023-02-21T11:07:03;98575.09;;;10.87;60.69
21824;BME280;11074;48.596;9.238;2023-02-21T11:09:41;98565.69;;;11.01;60.30
21824;BME280;11074;48.596;9.238;2023-02-21T11:12:27;98563.25;;;11.16;60.04
21824;BME280;11074;48.596;9.238;2023-02-21T11:17:22;98563.22;;;11.33;59.85
21824;BME280;11074;48.596;9.238;2023-02-21T11:19:55;98561.66;;;11.37;58.84
21824;BME280;11074;48.596;9.238;2023-02-21T11:22:42;98557.66;;;11.39;58.60
21824;BME280;11074;48.596;9.238;2023-02-21T11:25:31;98550.03;;;11.48;57.57
21824;BME280;11074;48.596;9.238;2023-02-21T11:28:21;98538.78;;;11.68;57.55
21824;BME280;11074;48.596;9.238;2023-02-21T11:33:58;98532.41;;;11.95;56.45
21824;BME280;11074;48.596;9.238;2023-02-21T11:36:34;98528.88;;;12.16;56.24
21824;BME280;11074;48.596;9.238;2023-02-21T11:39:24;98516.06;;;12.19;55.01
21824;BME280;11074;48.596;9.238;2023-02-21T11:42:01;98512.44;;;12.35;54.01
21824;BME280;11074;48.596;9.238;2023-02-21T11:44:35;98508.81;;;12.51;53.86
21824;BME280;11074;48.596;9.238;2023-02-21T11:47:21;98508.09;;;12.60;53.44
21824;BME280;11074;48.596;9.238;2023-02-21T11:50:07;98503.22;;;12.94;52.93
21824;BME280;11074;48.596;9.238;2023-02-21T11:55:25;98484.47;;;13.41;51.45
21824;BME280;11074;48.596;9.238;2023-02-21T11:58:05;98486.94;;;13.58;50.67
21824;BME280;11074;48.596;9.238;2023-02-21T12:00:50;98477.59;;;13.70;50.46
21824;BME280;11074;48.596;9.238;2023-02-21T12:03:46;98475.22;;;13.89;49.40
21824;BME280;11074;48.596;9.238;2023-02-21T12:06:47;98466.09;;;13.95;48.75
21824;BME280;11074;48.596;9.238;2023-02-21T12:09:52;98452.16;;;14.28;47.69
21824;BME280;11074;48.596;9.238;2023-02-21T12:12:32;98459.97;;;14.35;47.45
21824;BME280;11074;48.596;9.238;2023-02-21T12:15:55;98442.50;;;14.37;46.57
21824;BME280;11074;48.596;9.238;2023-02-21T12:27:46;98415.22;;;14.94;44.94
21824;BME280;11074;48.596;9.238;2023-02-21T12:30:38;98418.16;;;15.08;44.67
21824;BME280;11074;48.596;9.238;2023-02-21T12:33:43;98403.22;;;15.36;44.21
21824;BME280;11074;48.596;9.238;2023-02-21T12:39:26;98404.22;;;15.55;43.14
21824;BME280;11074;48.596;9.238;2023-02-21T12:48:41;98377.75;;;16.06;43.91
21824;BME280;11074;48.596;9.238;2023-02-21T12:51:25;98372.13;;;16.31;44.70
21824;BME280;11074;48.596;9.238;2023-02-21T12:54:18;98362.63;;;16.38;44.73
21824;BME280;11074;48.596;9.238;2023-02-21T12:57:01;98352.22;;;16.56;44.88
21824;BME280;11074;48.596;9.238;2023-02-21T12:59:56;98353.53;;;16.82;44.45
21824;BME280;11074;48.596;9.238;2023-02-21T13:05:35;98349.75;;;17.07;42.92
21824;BME280;11074;48.596;9.238;2023-02-21T13:08:20;98337.28;;;17.11;43.00
21824;BME280;11074;48.596;9.238;2023-02-21T13:10:57;98333.47;;;17.12;42.53
21824;BME280;11074;48.596;9.238;2023-02-21T13:13:29;98329.59;;;17.18;42.25
21824;BME280;11074;48.596;9.238;2023-02-21T13:16:06;98318.28;;;17.16;42.04
21824;BME280;11074;48.596;9.238;2023-02-21T13:18:49;98309.47;;;17.29;41.82
21824;BME280;11074;48.596;9.238;2023-02-21T13:30:22;98288.78;;;17.75;40.95
21824;BME280;11074;48.596;9.238;2023-02-21T13:32:58;98279.72;;;17.85;41.30
21824;BME280;11074;48.596;9.238;2023-02-21T13:35:38;98282.66;;;18.02;40.52
21824;BME280;11074;48.596;9.238;2023-02-21T13:38:10;98267.47;;;18.20;39.92
21824;BME280;11074;48.596;9.238;2023-02-21T13:40:53;98265.75;;;18.37;40.36
21824;BME280;11074;48.596;9.238;2023-02-21T13:43:30;98260.19;;;18.47;39.60
21824;BME280;11074;48.596;9.238;2023-02-21T13:49:48;98248.84;;;18.59;39.37
21824;BME280;11074;48.596;9.238;2023-02-21T14:08:25;98219.41;;;19.43;37.84
21824;BME280;11074;48.596;9.238;2023-02-21T14:13:48;98217.59;;;20.13;36.20
21824;BME280;11074;48.596;9.238;2023-02-21T14:16:33;98217.50;;;20.75;35.46
21824;BME280;11074;48.596;9.238;2023-02-21T14:19:22;98204.44;;;21.45;34.81
21824;BME280;11074;48.596;9.238;2023-02-21T14:22:03;98204.22;;;21.93;33.76
21824;BME280;11074;48.596;9.238;2023-02-21T14:24:35;98191.16;;;22.24;33.09
21824;BME280;11074;48.596;9.238;2023-02-21T14:30:13;98197.56;;;22.87;32.19
21824;BME280;11074;48.596;9.238;2023-02-21T14:32:40;98189.75;;;23.06;31.61
21824;BME280;11074;48.596;9.238;2023-02-21T14:35:27;98193.06;;;23.12;31.46
21824;BME280;11074;48.596;9.238;2023-02-21T14:38:21;98186.59;;;23.16;31.70
21824;BME280;11074;48.596;9.238;2023-02-21T14:41:24;98189.28;;;23.25;30.48
21824;BME280;11074;48.596;9.238;2023-02-21T14:44:08;98182.69;;;23.46;30.71
21824;BME280;11074;48.596;9.238;2023-02-21T14:47:25;98169.97;;;23.50;30.86
21824;BME280;11074;48.596;9.238;2023-02-21T14:50:16;98179.16;;;23.46;30.60
21824;BME280;11074;48.596;9.238;2023-02-21T14:53:08;98165.75;;;23.53;30.50
21824;BME280;11074;48.596;9.238;2023-02-21T14:59:11;98161.34;;;23.07;31.36
21824;BME280;11074;48.596;9.238;2023-02-21T15:04:50;98164.69;;;22.63;32.15
21824;BME280;11074;48.596;9.238;2023-02-21T15:10:28;98158.28;;;22.59;32.99
21824;BME280;11074;48.596;9.238;2023-02-21T15:13:01;98155.41;;;22.64;32.72
21824;BME280;11074;48.596;9.238;2023-02-21T15:18:06;98157.09;;;22.39;32.93
21824;BME280;11074;48.596;9.238;2023-02-21T15:20:36;98163.31;;;22.48;32.78
21824;BME280;11074;48.596;9.238;2023-02-21T15:23:14;98153.34;;;22.52;33.03
21824;BME280;11074;48.596;9.238;2023-02-21T15:25:42;98154.84;;;22.41;34.54
21824;BME280;11074;48.596;9.238;2023-02-21T15:28:29;98154.31;;;22.27;33.11
21824;BME280;11074;48.596;9.238;2023-02-21T15:31:07;98159.16;;;22.13;32.91
21824;BME280;11074;48.596;9.238;2023-02-21T15:33:36;98154.03;;;21.56;34.14
21824;BME280;11074;48.596;9.238;2023-02-21T15:36:08;98154.69;;;20.93;35.95
21824;BME280;11074;48.596;9.238;2023-02-21T15:43:53;98144.91;;;19.04;39.04
21824;BME280;11074;48.596;9.238;2023-02-21T15:46:32;98148.72;;;18.81;39.25
21824;BME280;11074;48.596;9.238;2023-02-21T15:49:03;98149.75;;;18.58;40.27